Time;durP1;ratioP1;P1;durP2;ratioP2;P2;SDS_P1;SDS_P2;PMS_P1;PMS_P2;Temp;Humidity;BMP_temperature;BMP_pressure;BME280_temperature;BME280_humidity;BME280_pressure;Samples;Min_cycle;Max_cycle;Signal;HPM_P1;HPM_P2
2022/12/12 00:00:30;;;;;;;41.90;19.70;;;-4.10;99.90;;;;;;5057814;28;20021;-79
2022/12/12 00:02:56;;;;;;;43.25;19.17;;;-4.20;99.90;;;;;;5050955;28;20040;-79
2022/12/12 00:05:22;;;;;;;37.92;19.45;;;-4.10;99.90;;;;;;5051148;28;20028;-79
2022/12/12 00:07:48;;;;;;;38.38;18.60;;;-4.10;99.90;;;;;;5055174;28;20021;-80
2022/12/12 00:10:13;;;;;;;37.83;18.17;;;-4.10;99.90;;;;;;5055970;28;20086;-79
2022/12/12 00:12:39;;;;;;;37.47;19.67;;;-4.10;99.90;;;;;;5054534;28;20017;-78
2022/12/12 00:15:06;;;;;;;40.25;17.65;;;-4.10;99.90;;;;;;5054499;28;20024;-79
2022/12/12 00:17:32;;;;;;;38.67;18.75;;;-4.10;99.90;;;;;;5054460;28;20033;-79
2022/12/12 00:19:57;;;;;;;39.63;17.17;;;-4.00;99.90;;;;;;5054421;28;20037;-80
2022/12/12 00:22:23;;;;;;;33.72;16.92;;;-4.00;99.90;;;;;;5055437;28;20021;-80
2022/12/12 00:24:48;;;;;;;44.67;19.55;;;-4.10;99.90;;;;;;5054285;28;20017;-79
2022/12/12 00:27:14;;;;;;;37.70;17.98;;;-4.00;99.90;;;;;;5055586;28;20555;-79
2022/12/12 00:29:40;;;;;;;34.53;17.10;;;-4.00;99.90;;;;;;5054243;28;20053;-80
2022/12/12 00:32:05;;;;;;;38.78;17.90;;;-4.00;99.90;;;;;;5055335;28;20032;-80
2022/12/12 00:34:31;;;;;;;33.28;16.70;;;-4.00;99.90;;;;;;5055355;28;20032;-80
2022/12/12 00:36:56;;;;;;;39.90;16.98;;;-4.00;99.90;;;;;;5055352;28;20027;-80
2022/12/12 00:39:22;;;;;;;40.03;16.17;;;-4.00;99.90;;;;;;5053949;28;20116;-79
2022/12/12 00:41:48;;;;;;;40.78;18.10;;;-4.00;99.90;;;;;;5053999;28;20054;-79
2022/12/12 00:44:14;;;;;;;37.10;17.55;;;-4.00;99.90;;;;;;5053802;28;20043;-79
2022/12/12 00:46:41;;;;;;;37.72;16.25;;;-3.90;99.90;;;;;;5053991;28;20017;-79
2022/12/12 00:49:06;;;;;;;42.78;16.45;;;-3.90;99.90;;;;;;5055224;28;20414;-79
2022/12/12 00:51:32;;;;;;;40.17;17.60;;;-3.90;99.90;;;;;;5071056;28;20028;-79
2022/12/12 00:53:58;;;;;;;37.83;18.40;;;-3.90;99.90;;;;;;5073604;28;20027;-80
2022/12/12 00:56:26;;;;;;;44.08;18.65;;;-4.00;99.90;;;;;;5073823;28;20021;-79
2022/12/12 00:58:51;;;;;;;45.00;18.65;;;-4.00;99.90;;;;;;5073318;28;20093;-79
2022/12/12 01:01:21;;;;;;;33.75;17.13;;;-4.00;99.90;;;;;;5053643;28;20025;-79
2022/12/12 01:03:46;;;;;;;37.72;18.33;;;-4.00;99.90;;;;;;5053489;28;20037;-80
2022/12/12 01:06:12;;;;;;;37.95;18.00;;;-4.00;99.90;;;;;;5054899;28;20074;-79
2022/12/12 01:08:39;;;;;;;36.80;17.35;;;-3.90;99.90;;;;;;5054711;28;20505;-79
2022/12/12 01:11:05;;;;;;;43.47;18.95;;;-4.00;99.90;;;;;;5053398;28;20079;-79
2022/12/12 01:13:31;;;;;;;37.72;19.55;;;-4.00;99.90;;;;;;5053417;28;20421;-78
2022/12/12 01:15:57;;;;;;;40.03;18.75;;;-4.00;99.90;;;;;;5053396;28;20021;-78
2022/12/12 01:18:23;;;;;;;40.70;19.27;;;-4.00;99.90;;;;;;5053329;28;20070;-80
2022/12/12 01:20:49;;;;;;;44.70;20.42;;;-4.00;99.90;;;;;;5053300;28;20041;-79
2022/12/12 01:23:14;;;;;;;42.58;19.95;;;-4.00;99.90;;;;;;5053193;28;20037;-79
2022/12/12 01:25:40;;;;;;;48.70;22.10;;;-4.00;99.90;;;;;;5054359;28;20079;-79
2022/12/12 01:28:06;;;;;;;50.85;22.40;;;-4.00;99.90;;;;;;5053143;28;20368;-79
2022/12/12 01:30:32;;;;;;;46.08;19.98;;;-4.00;99.90;;;;;;5053008;28;20028;-79
2022/12/12 01:32:58;;;;;;;42.60;20.45;;;-4.10;99.90;;;;;;5052932;28;20021;-79
2022/12/12 01:35:24;;;;;;;50.10;21.70;;;-4.10;99.90;;;;;;5053022;28;20115;-79
2022/12/12 01:37:50;;;;;;;50.97;21.70;;;-4.10;99.90;;;;;;5052886;28;20409;-79
2022/12/12 01:40:19;;;;;;;46.70;19.90;;;-4.00;99.90;;;;;;5052818;28;20024;-79
2022/12/12 01:42:45;;;;;;;50.78;22.55;;;-4.00;99.90;;;;;;5052650;28;20044;-79
2022/12/12 01:45:48;;;;;;;55.55;23.05;;;-4.00;99.90;;;;;;5052810;28;20496;-79
2022/12/12 01:48:13;;;;;;;44.92;20.90;;;-4.00;99.90;;;;;;5052770;28;20032;-79
2022/12/12 01:50:42;;;;;;;43.90;19.95;;;-4.00;99.90;;;;;;5062940;28;20016;-79
2022/12/12 01:53:08;;;;;;;40.45;19.02;;;-3.90;99.90;;;;;;5073774;28;20020;-79
2022/12/12 01:55:34;;;;;;;40.60;20.35;;;-4.00;99.90;;;;;;5073793;28;20508;-79
2022/12/12 01:58:00;;;;;;;42.80;19.20;;;-3.90;99.90;;;;;;5072579;28;20131;-79
2022/12/12 02:00:25;;;;;;;43.40;20.25;;;-3.90;99.90;;;;;;5058954;28;20029;-79
2022/12/12 02:02:54;;;;;;;41.08;17.88;;;-3.90;99.90;;;;;;5052147;28;20037;-79
2022/12/12 02:05:28;;;;;;;37.85;18.52;;;-3.90;99.90;;;;;;5053668;28;20063;-79
2022/12/12 02:07:55;;;;;;;39.13;19.50;;;-3.90;99.90;;;;;;5053658;28;20437;-79
2022/12/12 02:10:21;;;;;;;37.90;18.23;;;-3.90;99.90;;;;;;5053544;28;20023;-79
2022/12/12 02:12:47;;;;;;;35.25;17.10;;;-3.90;99.90;;;;;;5053607;28;20099;-79
2022/12/12 02:15:13;;;;;;;40.65;17.73;;;-3.90;99.90;;;;;;5053491;28;20025;-79
2022/12/12 02:17:57;;;;;;;39.40;17.77;;;-3.90;99.90;;;;;;5052288;28;20028;-79
2022/12/12 02:20:34;;;;;;;42.88;17.75;;;-3.90;99.90;;;;;;5052171;28;20029;-79
2022/12/12 02:23:21;;;;;;;36.50;19.23;;;-3.90;99.90;;;;;;5052069;28;20041;-80
2022/12/12 02:26:13;;;;;;;38.10;16.77;;;-3.90;99.90;;;;;;5051988;28;20041;-79
2022/12/12 02:29:06;;;;;;;36.72;18.23;;;-3.90;99.90;;;;;;5052992;28;20041;-79
2022/12/12 02:31:48;;;;;;;36.15;17.73;;;-4.00;99.90;;;;;;5051935;28;20056;-79
2022/12/12 02:34:25;;;;;;;40.42;17.75;;;-4.00;99.90;;;;;;5032135;28;20079;-80
2022/12/12 02:37:13;;;;;;;32.80;16.77;;;-4.00;99.90;;;;;;5033346;28;20034;-79
2022/12/12 02:39:57;;;;;;;36.28;17.55;;;-4.00;99.90;;;;;;5031987;28;20056;-79
2022/12/12 02:42:22;;;;;;;40.58;18.23;;;-3.90;99.90;;;;;;5033395;28;20095;-79
2022/12/12 02:45:12;;;;;;;37.58;18.55;;;-4.00;99.90;;;;;;5031738;28;20124;-78
2022/12/12 02:47:53;;;;;;;39.03;18.45;;;-4.00;99.90;;;;;;5031974;28;20032;-79
2022/12/12 02:50:26;;;;;;;36.70;18.42;;;-4.00;99.90;;;;;;5047613;28;20020;-79
2022/12/12 02:52:51;;;;;;;42.95;17.98;;;-4.00;99.90;;;;;;5071769;28;20474;-78
2022/12/12 02:55:18;;;;;;;39.38;19.88;;;-4.00;99.90;;;;;;5071707;28;20161;-79
2022/12/12 02:57:44;;;;;;;42.45;18.77;;;-4.00;99.90;;;;;;5071740;28;20016;-78
2022/12/12 03:00:13;;;;;;;44.35;17.63;;;-4.00;99.90;;;;;;5058718;28;20029;-79
2022/12/12 03:02:38;;;;;;;36.63;20.27;;;-4.00;99.90;;;;;;5051581;28;20029;-79
2022/12/12 03:08:12;;;;;;;41.30;19.65;;;-4.00;99.90;;;;;;5053013;28;20449;-79
2022/12/12 03:11:01;;;;;;;47.17;21.13;;;-4.00;99.90;;;;;;5052804;28;20055;-79
2022/12/12 03:13:49;;;;;;;45.80;20.55;;;-4.00;99.90;;;;;;5051636;28;20029;-79
2022/12/12 03:16:24;;;;;;;41.55;19.67;;;-4.00;99.90;;;;;;5052783;28;20025;-79
2022/12/12 03:18:58;;;;;;;44.08;19.65;;;-4.00;99.90;;;;;;5052904;28;20029;-79
2022/12/12 03:21:55;;;;;;;42.20;19.70;;;-4.00;99.90;;;;;;5051493;28;20368;-79
2022/12/12 03:24:26;;;;;;;40.22;19.40;;;-4.00;99.90;;;;;;5051261;28;20071;-80
2022/12/12 03:27:00;;;;;;;41.92;18.25;;;-4.10;99.90;;;;;;5052897;28;20033;-80
2022/12/12 03:29:56;;;;;;;42.15;18.85;;;-4.10;99.90;;;;;;5051441;28;20021;-79
2022/12/12 03:32:27;;;;;;;67.72;25.67;;;-4.10;99.90;;;;;;5051359;28;20051;-79
2022/12/12 03:35:05;;;;;;;43.95;19.95;;;-4.10;99.90;;;;;;5051357;28;20025;-80
2022/12/12 03:37:34;;;;;;;46.03;20.05;;;-4.10;99.90;;;;;;5052691;28;20029;-80
2022/12/12 03:40:06;;;;;;;35.05;18.08;;;-4.10;99.90;;;;;;5052572;28;20021;-80
2022/12/12 03:42:44;;;;;;;50.05;21.20;;;-4.10;99.90;;;;;;5053871;28;20045;-79
2022/12/12 03:45:25;;;;;;;46.67;20.13;;;-4.10;99.90;;;;;;5055138;28;20031;-80
2022/12/12 03:48:11;;;;;;;51.67;21.58;;;-4.10;99.90;;;;;;5056395;28;20025;-79
2022/12/12 03:50:44;;;;;;;75.13;29.08;;;-4.10;99.90;;;;;;5065562;28;20013;-78
2022/12/12 03:53:25;;;;;;;37.83;19.60;;;-4.00;99.90;;;;;;5076385;28;20024;-80
2022/12/12 03:56:06;;;;;;;77.53;27.33;;;-4.00;99.90;;;;;;5074875;28;20462;-79
2022/12/12 03:58:37;;;;;;;40.40;17.10;;;-4.00;99.90;;;;;;5076238;28;20052;-78
2022/12/12 04:01:07;;;;;;;42.75;19.02;;;-4.00;99.90;;;;;;5034872;28;20174;-80
2022/12/12 04:03:57;;;;;;;51.42;24.92;;;-4.00;99.90;;;;;;5035979;28;20402;-78
2022/12/12 04:06:31;;;;;;;115.18;38.28;;;-4.00;99.90;;;;;;5034672;28;20026;-80
2022/12/12 04:15:11;;;;;;;112.97;33.47;;;-4.00;99.90;;;;;;5036129;28;20071;-78
2022/12/12 04:18:02;;;;;;;53.38;20.35;;;-4.00;99.90;;;;;;5036021;28;20087;-79
2022/12/12 04:24:11;;;;;;;44.92;20.25;;;-4.00;99.90;;;;;;5035787;28;20103;-79
2022/12/12 04:27:00;;;;;;;40.65;18.95;;;-4.00;99.90;;;;;;5034303;28;20044;-79
2022/12/12 04:29:37;;;;;;;47.65;20.70;;;-4.00;99.90;;;;;;5034572;28;20033;-79
2022/12/12 04:32:06;;;;;;;44.88;21.65;;;-4.00;99.90;;;;;;5035526;28;20360;-79
2022/12/12 04:34:50;;;;;;;47.88;19.35;;;-4.00;99.90;;;;;;5034315;28;20033;-79
2022/12/12 04:37:21;;;;;;;40.15;18.27;;;-4.00;99.90;;;;;;5034254;28;20026;-79
2022/12/12 04:39:49;;;;;;;46.60;18.73;;;-4.00;99.90;;;;;;5032509;28;20017;-78
2022/12/12 04:42:20;;;;;;;40.17;19.30;;;-4.00;99.90;;;;;;5033877;28;20069;-80
2022/12/12 04:44:47;;;;;;;43.88;20.75;;;-4.00;99.90;;;;;;5033791;28;20029;-79
2022/12/12 04:47:14;;;;;;;41.53;18.73;;;-3.90;99.90;;;;;;5033469;28;20026;-79
2022/12/12 04:49:45;;;;;;;50.15;22.33;;;-3.90;99.90;;;;;;5040746;28;20056;-79
2022/12/12 04:52:13;;;;;;;45.70;18.55;;;-3.90;99.90;;;;;;5073378;28;20028;-79
2022/12/12 04:55:12;;;;;;;48.17;21.60;;;-3.90;99.90;;;;;;5074097;28;20486;-79
2022/12/12 04:57:41;;;;;;;42.75;19.23;;;-4.00;99.90;;;;;;5071517;28;20103;-79
2022/12/12 05:00:09;;;;;;;52.63;21.05;;;-4.00;99.90;;;;;;5058410;28;20017;-79
2022/12/12 05:03:09;;;;;;;40.20;18.63;;;-4.00;99.90;;;;;;5052812;28;20040;-79
2022/12/12 05:05:46;;;;;;;42.83;20.02;;;-4.00;99.90;;;;;;5052735;28;20063;-79
2022/12/12 05:08:40;;;;;;;41.47;19.65;;;-4.00;99.90;;;;;;5051570;28;20029;-80
2022/12/12 05:11:06;;;;;;;96.80;36.53;;;-4.00;99.90;;;;;;5051691;28;20036;-79
2022/12/12 05:13:38;;;;;;;39.83;19.25;;;-4.00;99.90;;;;;;5054917;28;20020;-79
2022/12/12 05:16:16;;;;;;;48.40;19.58;;;-3.90;99.90;;;;;;5053315;28;20430;-78
2022/12/12 05:18:42;;;;;;;44.10;22.17;;;-3.90;99.90;;;;;;5053689;28;20025;-79
2022/12/12 05:21:07;;;;;;;53.28;21.17;;;-3.90;99.90;;;;;;5054595;28;20473;-79
2022/12/12 05:23:33;;;;;;;57.55;22.88;;;-4.00;99.90;;;;;;5053318;28;20029;-79
2022/12/12 05:25:58;;;;;;;40.90;19.52;;;-4.00;99.90;;;;;;5053239;28;20037;-79
2022/12/12 05:28:24;;;;;;;69.00;30.95;;;-4.00;99.90;;;;;;5054361;28;20055;-80
2022/12/12 05:30:49;;;;;;;46.42;22.10;;;-4.00;99.90;;;;;;5054463;28;20429;-79
2022/12/12 05:33:15;;;;;;;46.20;21.80;;;-4.00;99.90;;;;;;5053051;28;20025;-79
2022/12/12 05:35:40;;;;;;;42.05;20.45;;;-3.90;99.90;;;;;;5052944;28;20029;-78
2022/12/12 05:38:06;;;;;;;56.72;22.10;;;-4.00;99.90;;;;;;5053002;28;20048;-79
2022/12/12 05:40:31;;;;;;;59.03;25.70;;;-4.00;99.90;;;;;;5053004;28;20036;-79
2022/12/12 05:42:57;;;;;;;45.63;19.27;;;-3.90;99.90;;;;;;5052913;28;20126;-79
2022/12/12 05:45:23;;;;;;;70.50;28.50;;;-4.00;99.90;;;;;;5054144;28;20021;-79
2022/12/12 05:47:49;;;;;;;38.30;21.08;;;-3.90;99.90;;;;;;5052772;28;20033;-79
2022/12/12 05:50:14;;;;;;;55.55;23.15;;;-4.00;99.90;;;;;;5062276;28;20021;-79
2022/12/12 05:52:40;;;;;;;45.35;21.88;;;-4.00;99.90;;;;;;5072676;28;20021;-79
2022/12/12 05:55:06;;;;;;;51.13;22.20;;;-3.90;99.90;;;;;;5072668;28;20021;-79
2022/12/12 05:57:31;;;;;;;50.42;20.75;;;-3.90;99.90;;;;;;5072531;28;20040;-79
2022/12/12 05:59:57;;;;;;;49.70;21.60;;;-3.90;99.90;;;;;;5061587;28;20467;-79
2022/12/12 06:02:22;;;;;;;56.88;24.25;;;-3.90;99.90;;;;;;5052441;28;20406;-80
2022/12/12 06:04:48;;;;;;;49.17;20.45;;;-3.90;99.90;;;;;;5052864;28;20044;-79
2022/12/12 06:07:14;;;;;;;43.85;21.42;;;-3.90;99.90;;;;;;5053837;28;20479;-78
2022/12/12 06:09:39;;;;;;;61.03;24.92;;;-3.90;99.90;;;;;;5053626;28;20028;-79
2022/12/12 06:12:05;;;;;;;43.10;21.95;;;-3.90;99.90;;;;;;5052281;28;20073;-78
2022/12/12 06:14:30;;;;;;;49.42;21.92;;;-3.80;99.90;;;;;;5052215;28;20062;-80
2022/12/12 06:16:56;;;;;;;51.38;20.88;;;-3.90;99.90;;;;;;5053423;28;20061;-78
2022/12/12 06:19:21;;;;;;;71.13;28.50;;;-3.90;99.90;;;;;;5052149;28;20120;-78
2022/12/12 06:21:47;;;;;;;50.00;22.42;;;-3.90;99.90;;;;;;5052195;28;20021;-79
2022/12/12 06:24:13;;;;;;;48.05;22.45;;;-3.80;99.90;;;;;;5053221;28;20036;-79
2022/12/12 06:26:38;;;;;;;46.35;21.00;;;-3.80;99.90;;;;;;5051944;28;20037;-78
2022/12/12 06:29:04;;;;;;;49.15;21.20;;;-3.80;99.90;;;;;;5052064;28;20032;-79
2022/12/12 06:31:30;;;;;;;48.63;21.52;;;-3.80;99.90;;;;;;5051990;28;20048;-79
2022/12/12 06:33:56;;;;;;;54.47;21.85;;;-3.80;99.90;;;;;;5051788;28;20116;-79
2022/12/12 06:36:23;;;;;;;44.35;18.75;;;-3.80;99.90;;;;;;5051950;28;20051;-78
2022/12/12 06:38:59;;;;;;;47.03;21.45;;;-3.80;99.90;;;;;;5045592;28;20017;-79
2022/12/12 06:41:29;;;;;;;48.80;22.33;;;-3.80;99.90;;;;;;5037640;28;20486;-79
2022/12/12 06:43:55;;;;;;;48.55;21.35;;;-3.80;99.90;;;;;;5043295;28;20118;-80
2022/12/12 06:46:24;;;;;;;53.53;24.67;;;-3.80;99.90;;;;;;5042900;28;20033;-79
2022/12/12 06:48:51;;;;;;;44.15;23.02;;;-3.80;99.90;;;;;;5038570;28;20479;-80
2022/12/12 06:51:23;;;;;;;55.45;26.45;;;-3.80;99.90;;;;;;5066333;28;20060;-80
2022/12/12 06:53:52;;;;;;;49.20;21.70;;;-3.80;99.90;;;;;;5055084;28;20024;-80
2022/12/12 06:56:21;;;;;;;53.15;26.35;;;-3.80;99.90;;;;;;5070018;28;20033;-78
2022/12/12 06:58:47;;;;;;;50.25;21.73;;;-3.70;99.90;;;;;;5065300;28;20090;-78
2022/12/12 07:01:15;;;;;;;47.88;21.55;;;-3.80;99.90;;;;;;5070678;28;20029;-78
2022/12/12 07:03:44;;;;;;;50.28;23.92;;;-3.80;99.90;;;;;;5070873;28;20125;-77
2022/12/12 07:06:09;;;;;;;53.92;22.92;;;-3.70;99.90;;;;;;5071365;28;20066;-80
2022/12/12 07:08:36;;;;;;;47.35;22.27;;;-3.80;99.90;;;;;;5071488;28;20107;-81
2022/12/12 07:11:15;;;;;;;51.65;23.52;;;-3.70;99.90;;;;;;5061172;28;20018;-76
2022/12/12 07:13:42;;;;;;;51.50;23.52;;;-3.70;99.90;;;;;;5060018;28;20025;-76
2022/12/12 07:16:08;;;;;;;55.10;24.88;;;-3.70;99.90;;;;;;5063088;28;20048;-77
2022/12/12 07:18:33;;;;;;;52.20;22.38;;;-3.60;99.90;;;;;;5075181;28;20473;-77
2022/12/12 07:21:03;;;;;;;49.83;23.67;;;-3.60;99.90;;;;;;5076666;28;20086;-77
2022/12/12 07:23:28;;;;;;;47.63;23.33;;;-3.60;99.90;;;;;;5071107;28;20043;-78
2022/12/12 07:25:54;;;;;;;46.03;21.98;;;-3.60;99.90;;;;;;5058545;28;20029;-78
2022/12/12 07:28:20;;;;;;;44.70;19.65;;;-3.60;99.90;;;;;;5070036;28;20028;-79
2022/12/12 07:30:49;;;;;;;48.40;21.77;;;-3.60;99.90;;;;;;5075415;28;20108;-77
2022/12/12 07:33:15;;;;;;;51.42;23.92;;;-3.50;99.90;;;;;;5075038;28;20530;-78
2022/12/12 07:35:42;;;;;;;43.03;23.52;;;-3.50;99.90;;;;;;5073570;28;20035;-78
2022/12/12 07:38:09;;;;;;;49.13;21.00;;;-3.50;99.90;;;;;;5075903;28;20032;-78
2022/12/12 07:40:35;;;;;;;57.72;26.20;;;-3.50;99.90;;;;;;5074927;28;20024;-77
2022/12/12 07:43:03;;;;;;;51.92;26.80;;;-3.50;99.90;;;;;;5055218;28;20128;-77
2022/12/12 07:45:29;;;;;;;98.50;41.45;;;-3.40;99.90;;;;;;5075046;28;20025;-79
2022/12/12 07:47:55;;;;;;;84.10;40.53;;;-3.40;99.90;;;;;;5076043;28;20020;-77
2022/12/12 07:50:21;;;;;;;58.85;28.80;;;-3.30;99.90;;;;;;5058883;28;20495;-78
2022/12/12 07:52:47;;;;;;;62.20;28.13;;;-3.30;99.90;;;;;;5063871;28;20022;-77
2022/12/12 07:55:12;;;;;;;67.40;31.15;;;-3.30;99.90;;;;;;5048410;28;20025;-78
2022/12/12 07:57:38;;;;;;;63.38;30.90;;;-3.30;99.90;;;;;;5052074;28;20505;-79
2022/12/12 08:00:06;;;;;;;60.50;28.60;;;-3.30;99.90;;;;;;5043720;28;20021;-80
2022/12/12 08:02:32;;;;;;;63.08;28.85;;;-3.30;99.90;;;;;;5046138;28;20028;-77
2022/12/12 08:04:57;;;;;;;62.10;29.98;;;-3.30;99.90;;;;;;5045188;28;20025;-80
2022/12/12 08:07:23;;;;;;;60.05;27.70;;;-3.20;99.90;;;;;;5051388;28;20100;-79
2022/12/12 08:09:49;;;;;;;62.78;29.35;;;-3.20;99.90;;;;;;5047448;28;20394;-78
2022/12/12 08:12:15;;;;;;;69.85;29.48;;;-3.20;99.90;;;;;;5054134;28;20104;-78
2022/12/12 08:14:40;;;;;;;55.60;26.67;;;-3.10;99.90;;;;;;5050715;28;20485;-77
2022/12/12 08:17:06;;;;;;;63.95;31.73;;;-3.10;99.90;;;;;;5052451;28;20029;-78
2022/12/12 08:19:32;;;;;;;61.83;28.35;;;-3.10;99.90;;;;;;5042606;28;20034;-78
2022/12/12 08:21:58;;;;;;;68.95;32.97;;;-3.10;99.90;;;;;;5050487;28;20035;-77
2022/12/12 08:24:23;;;;;;;56.10;25.75;;;-3.00;99.90;;;;;;5053131;28;20029;-77
2022/12/12 08:26:51;;;;;;;65.65;31.33;;;-3.10;99.90;;;;;;5048701;28;20104;-78
2022/12/12 08:29:16;;;;;;;65.60;29.75;;;-3.00;99.90;;;;;;5043079;28;20025;-78
2022/12/12 08:31:42;;;;;;;59.53;28.83;;;-3.00;99.90;;;;;;5049501;28;20500;-78
2022/12/12 08:34:08;;;;;;;72.95;34.50;;;-3.00;99.90;;;;;;5047043;28;20021;-78
2022/12/12 08:36:35;;;;;;;61.85;28.85;;;-2.90;99.90;;;;;;5039509;28;20025;-76
2022/12/12 08:39:07;;;;;;;66.18;32.17;;;-2.90;99.90;;;;;;5060129;28;20024;-78
2022/12/12 08:41:37;;;;;;;57.22;31.33;;;-2.90;99.90;;;;;;5064736;28;20048;-78
2022/12/12 08:44:03;;;;;;;59.28;29.08;;;-2.80;99.90;;;;;;5068662;28;20040;-78
2022/12/12 08:46:28;;;;;;;58.58;31.88;;;-2.80;99.90;;;;;;5067025;28;20051;-77
2022/12/12 08:48:54;;;;;;;56.72;28.77;;;-2.70;99.90;;;;;;5046902;28;20026;-78
2022/12/12 08:51:20;;;;;;;56.60;26.40;;;-2.70;99.90;;;;;;5062824;28;20072;-79
2022/12/12 08:53:47;;;;;;;59.95;27.63;;;-2.70;99.90;;;;;;5073551;28;20032;-78
2022/12/12 08:56:13;;;;;;;53.58;26.58;;;-2.60;99.90;;;;;;5074720;28;20032;-77
2022/12/12 08:58:39;;;;;;;56.03;29.10;;;-2.50;99.90;;;;;;5072710;28;20035;-77
2022/12/12 09:01:17;;;;;;;55.05;26.98;;;-2.50;99.90;;;;;;5074575;28;20471;-79
2022/12/12 09:03:43;;;;;;;48.75;24.98;;;-2.60;99.90;;;;;;5074506;28;20118;-79
2022/12/12 09:06:09;;;;;;;61.25;29.05;;;-2.60;99.90;;;;;;5074650;28;20075;-77
2022/12/12 09:08:36;;;;;;;60.90;29.13;;;-2.60;99.90;;;;;;5074349;28;20021;-77
2022/12/12 09:11:02;;;;;;;54.15;26.42;;;-2.50;99.90;;;;;;5054209;28;20072;-77
2022/12/12 09:13:29;;;;;;;58.10;26.67;;;-2.50;99.90;;;;;;5066725;28;20021;-78
2022/12/12 09:15:55;;;;;;;69.00;31.70;;;-2.50;99.90;;;;;;5073143;28;20020;-77
2022/12/12 09:18:21;;;;;;;54.97;27.65;;;-2.40;99.90;;;;;;5072870;28;20366;-76
2022/12/12 09:20:50;;;;;;;53.60;27.05;;;-2.40;99.90;;;;;;5072642;28;20021;-76
2022/12/12 09:23:16;;;;;;;55.47;26.95;;;-2.50;99.90;;;;;;5074131;28;20032;-78
2022/12/12 09:25:42;;;;;;;46.47;25.40;;;-2.40;99.90;;;;;;5072900;28;20120;-78
2022/12/12 09:28:10;;;;;;;63.65;30.48;;;-2.50;99.90;;;;;;5072191;28;20100;-79
2022/12/12 09:30:35;;;;;;;63.63;32.35;;;-2.50;99.90;;;;;;5073716;28;20027;-78
2022/12/12 09:33:01;;;;;;;65.15;30.98;;;-2.50;99.90;;;;;;5074013;28;20025;-79
2022/12/12 09:35:27;;;;;;;57.00;27.20;;;-2.50;99.90;;;;;;5073870;28;20033;-79
2022/12/12 09:37:52;;;;;;;61.30;27.88;;;-2.50;99.90;;;;;;5073845;28;20031;-77
2022/12/12 09:40:28;;;;;;;61.88;33.80;;;-2.50;99.90;;;;;;5073609;28;20024;-77
2022/12/12 09:42:54;;;;;;;72.13;35.53;;;-2.40;99.90;;;;;;5058611;28;20049;-79
2022/12/12 09:45:19;;;;;;;53.63;27.73;;;-2.30;99.90;;;;;;5062060;28;20079;-77
2022/12/12 09:47:58;;;;;;;67.03;32.28;;;-2.40;99.90;;;;;;5072388;28;20048;-79
2022/12/12 09:50:35;;;;;;;60.67;31.95;;;-2.40;99.90;;;;;;5050133;28;20021;-77
2022/12/12 09:53:10;;;;;;;54.97;28.52;;;-2.40;99.90;;;;;;5073907;28;20409;-77
2022/12/12 09:55:56;;;;;;;62.05;29.75;;;-2.40;99.90;;;;;;5072041;28;20024;-77
2022/12/12 09:59:06;;;;;;;81.13;33.72;;;-2.50;99.90;;;;;;5071819;28;20032;-77
2022/12/12 10:01:59;;;;;;;57.40;29.55;;;-2.40;99.90;;;;;;5067656;28;20527;-79
2022/12/12 10:04:31;;;;;;;87.78;42.85;;;-2.40;99.90;;;;;;5073447;28;20064;-76
2022/12/12 10:07:17;;;;;;;97.20;36.42;;;-2.30;99.90;;;;;;5072119;28;20035;-78
2022/12/12 10:10:18;;;;;;;69.35;31.65;;;-2.30;99.90;;;;;;5045766;28;20022;-79
2022/12/12 10:12:46;;;;;;;62.30;29.75;;;-2.30;99.90;;;;;;5042654;28;20419;-77
2022/12/12 10:15:42;;;;;;;91.75;37.67;;;-2.30;99.90;;;;;;5048663;28;20115;-79
2022/12/12 10:18:32;;;;;;;58.38;29.30;;;-2.30;99.90;;;;;;5042079;28;20040;-76
2022/12/12 10:21:03;;;;;;;100.60;47.45;;;-2.30;99.90;;;;;;5045147;28;20060;-77
2022/12/12 10:23:38;;;;;;;85.70;35.50;;;-2.30;99.90;;;;;;5046324;28;20078;-77
2022/12/12 10:26:17;;;;;;;78.90;36.17;;;-2.30;99.90;;;;;;5045375;28;20052;-76
2022/12/12 10:28:43;;;;;;;104.32;47.28;;;-2.40;99.90;;;;;;5047489;28;20024;-77
2022/12/12 10:31:43;;;;;;;120.50;48.28;;;-2.30;99.90;;;;;;5072945;28;20086;-76
2022/12/12 10:34:28;;;;;;;105.55;43.05;;;-2.30;99.90;;;;;;5047089;28;20043;-76
2022/12/12 10:37:13;;;;;;;130.55;55.75;;;-2.30;99.90;;;;;;5040879;28;20036;-75
2022/12/12 10:39:49;;;;;;;110.18;51.50;;;-2.30;99.90;;;;;;5066400;28;20029;-75
2022/12/12 10:42:23;;;;;;;104.25;45.33;;;-2.30;99.90;;;;;;5057418;28;20098;-79
2022/12/12 10:45:27;;;;;;;86.25;40.47;;;-2.30;99.90;;;;;;5059479;28;20036;-76
2022/12/12 10:47:52;;;;;;;;;;;-2.30;99.90;;;;;;5071924;28;20070;-77
2022/12/12 10:50:29;;;;;;;128.65;57.08;;;-2.30;99.90;;;;;;5053788;28;19932;-79
2022/12/12 10:52:54;;;;;;;68.75;36.15;;;-2.30;99.90;;;;;;5046875;28;20049;-78
2022/12/12 10:55:37;;;;;;;71.55;33.00;;;-2.30;99.90;;;;;;5057933;28;20044;-77
2022/12/12 10:58:03;;;;;;;;;;;-2.30;99.90;;;;;;5056678;28;20093;-76
2022/12/12 11:00:36;;;;;;;116.35;48.90;;;-2.30;99.90;;;;;;5060655;28;19951;-78
2022/12/12 11:03:20;;;;;;;105.85;47.08;;;-2.20;99.90;;;;;;5072609;28;20028;-77
2022/12/12 11:05:47;;;;;;;102.05;44.17;;;-2.20;99.90;;;;;;5071386;28;20107;-77
2022/12/12 11:08:27;;;;;;;91.13;45.03;;;-2.20;99.90;;;;;;5059318;28;20075;-76
2022/12/12 11:11:06;;;;;;;90.97;41.75;;;-2.10;99.90;;;;;;5047028;28;20031;-77
2022/12/12 11:13:58;;;;;;;75.10;32.55;;;-2.20;99.90;;;;;;5072608;28;20029;-77
2022/12/12 11:16:29;;;;;;;73.80;32.57;;;-2.20;99.90;;;;;;5071082;28;20021;-78
2022/12/12 11:18:59;;;;;;;85.57;42.00;;;-2.10;99.90;;;;;;5072248;28;20024;-76
2022/12/12 11:21:26;;;;;;;65.10;28.33;;;-2.10;99.90;;;;;;5071118;28;20051;-77
2022/12/12 11:23:55;;;;;;;71.07;28.17;;;-2.20;99.90;;;;;;5056243;28;20028;-77
2022/12/12 11:26:21;;;;;;;67.78;31.08;;;-2.10;99.90;;;;;;5064618;28;20016;-77
2022/12/12 11:28:55;;;;;;;62.13;28.05;;;-2.10;99.90;;;;;;5070821;28;20021;-78
2022/12/12 11:31:23;;;;;;;104.00;44.92;;;-2.20;99.90;;;;;;5065444;28;20058;-77
2022/12/12 11:33:52;;;;;;;76.72;31.38;;;-2.20;99.90;;;;;;5071993;28;20024;-77
2022/12/12 11:36:22;;;;;;;56.72;25.88;;;-2.30;99.90;;;;;;5071050;28;20023;-77
2022/12/12 11:38:58;;;;;;;60.92;28.63;;;-2.30;99.90;;;;;;5070795;28;20025;-76
2022/12/12 11:41:23;;;;;;;67.82;32.20;;;-2.20;99.90;;;;;;5063724;28;20021;-76
2022/12/12 11:43:49;;;;;;;89.05;35.22;;;-2.20;99.90;;;;;;5064227;28;20033;-78
2022/12/12 11:46:22;;;;;;;69.78;32.17;;;-2.10;99.90;;;;;;5072156;28;20028;-78
2022/12/12 11:48:50;;;;;;;58.50;27.42;;;-2.10;99.90;;;;;;5065062;28;20044;-77
2022/12/12 11:51:42;;;;;;;57.78;26.80;;;-2.20;99.90;;;;;;5059818;28;20106;-77
2022/12/12 11:54:27;;;;;;;77.55;37.30;;;-2.10;99.90;;;;;;5067860;28;20051;-77
2022/12/12 11:57:31;;;;;;;70.45;31.63;;;-2.10;99.90;;;;;;5065203;28;20025;-77
2022/12/12 12:00:16;;;;;;;59.35;26.10;;;-2.10;99.90;;;;;;5072077;28;20033;-76
2022/12/12 12:03:13;;;;;;;57.45;29.35;;;-2.10;99.90;;;;;;5071977;28;20047;-76
2022/12/12 12:06:08;;;;;;;60.28;28.77;;;-2.00;99.90;;;;;;5062046;28;20037;-78
2022/12/12 12:08:43;;;;;;;61.33;24.98;;;-2.10;99.90;;;;;;5074378;28;20037;-76
2022/12/12 12:11:46;;;;;;;54.05;26.67;;;-2.10;99.90;;;;;;5074031;28;20043;-76
2022/12/12 12:14:29;;;;;;;50.03;25.45;;;-2.00;99.90;;;;;;5075698;28;20021;-77
2022/12/12 12:17:10;;;;;;;57.30;28.58;;;-1.90;99.90;;;;;;5070810;28;20417;-78
2022/12/12 12:19:52;;;;;;;86.28;41.58;;;-1.90;99.90;;;;;;5068956;28;20078;-76
2022/12/12 12:22:39;;;;;;;62.13;31.23;;;-1.90;99.90;;;;;;5075497;28;20104;-76
2022/12/12 12:25:18;;;;;;;75.50;38.13;;;-1.90;99.90;;;;;;5073614;28;20119;-77
2022/12/12 12:28:03;;;;;;;87.15;43.33;;;-1.80;99.90;;;;;;5073949;28;20016;-76
2022/12/12 12:30:55;;;;;;;81.65;40.72;;;-1.90;99.90;;;;;;5074242;28;20017;-78
2022/12/12 12:33:37;;;;;;;70.57;33.13;;;-1.90;99.90;;;;;;5075164;28;20021;-78
2022/12/12 12:36:22;;;;;;;68.70;31.60;;;-1.90;99.90;;;;;;5075158;28;20037;-76
2022/12/12 12:39:00;;;;;;;55.45;26.55;;;-1.90;99.90;;;;;;5073741;28;20035;-78
2022/12/12 12:41:32;;;;;;;86.47;40.97;;;-1.90;99.90;;;;;;5067119;28;20515;-77
2022/12/12 12:44:13;;;;;;;103.95;42.05;;;-1.90;99.90;;;;;;5069556;28;20513;-77
2022/12/12 12:47:22;;;;;;;72.18;30.30;;;-1.90;99.90;;;;;;5073485;28;20032;-77
2022/12/12 12:50:00;;;;;;;65.53;28.60;;;-1.90;99.90;;;;;;5058209;28;20033;-78
2022/12/12 12:52:35;;;;;;;68.30;33.42;;;-1.90;99.90;;;;;;5072446;28;20024;-78
2022/12/12 12:55:02;;;;;;;69.38;34.28;;;-1.90;99.90;;;;;;5072996;28;20028;-78
2022/12/12 12:57:36;;;;;;;58.25;25.90;;;-1.90;99.90;;;;;;5074661;28;20147;-76
2022/12/12 13:00:14;;;;;;;57.22;24.33;;;-1.90;99.90;;;;;;5073536;28;20028;-75
2022/12/12 13:03:17;;;;;;;63.10;28.98;;;-1.90;99.90;;;;;;5074816;28;20024;-76
2022/12/12 13:05:50;;;;;;;66.28;30.42;;;-2.00;99.90;;;;;;5073072;28;20127;-75